Terminal Aerodrome Forecast
Issued by NWS

Home | Current Version | Previous Version | Text Only | Print | Product List | Glossary On
Versions: 1 2 3 4 5 6 7 8 9 10 11 12 13 14 15 16 17 18 19 20 21
000
FTUS43 KMKX 041735
TAFUES
TAF
KUES 041735Z 0418/0518 14005KT 3/4SM -SN OVC006
     FM042100 17007KT 1 1/2SM -SN OVC008
     FM050000 24006KT P6SM OVC010
     FM050900 25006KT P6SM BKN040
     FM051400 23004KT P6SM BKN110=

USA.gov is the U.S. government's official web portal to all federal, state and local government web resources and services.